createdAt,value
2018-03-20T00:00:18.253Z,16.93
2018-03-20T00:01:18.834Z,16.81
2018-03-20T00:02:19.453Z,16.66
2018-03-20T00:03:20.029Z,16.61
2018-03-20T00:04:20.603Z,16.38
2018-03-20T00:05:21.180Z,16.39
2018-03-20T00:06:21.806Z,16.47
2018-03-20T00:07:22.432Z,16.58
2018-03-20T00:08:23.008Z,16.60
2018-03-20T00:09:23.585Z,16.74
2018-03-20T00:10:24.315Z,16.72
2018-03-20T00:11:24.885Z,16.84
2018-03-20T00:12:25.462Z,16.81
2018-03-20T00:13:26.040Z,16.83
2018-03-20T00:14:26.618Z,16.87
2018-03-20T00:15:27.197Z,16.91
2018-03-20T00:16:27.776Z,16.86
2018-03-20T00:17:28.354Z,16.90
2018-03-20T00:18:28.930Z,16.89
2018-03-20T00:19:29.506Z,16.81
2018-03-20T00:20:30.085Z,16.91
2018-03-20T00:21:30.757Z,16.86
2018-03-20T00:22:31.332Z,16.84
2018-03-20T00:23:31.907Z,16.83
2018-03-20T00:24:32.484Z,16.79
2018-03-20T00:25:33.109Z,16.81
2018-03-20T00:26:33.694Z,16.78
2018-03-20T00:27:34.263Z,16.81
2018-03-20T00:28:34.848Z,16.83
2018-03-20T00:29:35.420Z,16.72
2018-03-20T00:30:36.198Z,16.79
2018-03-20T00:31:36.973Z,16.84
2018-03-20T00:32:37.650Z,16.72
2018-03-20T00:33:38.226Z,16.79
2018-03-20T00:34:38.805Z,16.71
2018-03-20T00:35:39.382Z,16.71
2018-03-20T00:36:39.958Z,16.72
2018-03-20T00:37:40.576Z,16.61
2018-03-20T00:38:41.151Z,16.61
2018-03-20T00:39:41.727Z,16.56
2018-03-20T00:40:42.303Z,16.56
2018-03-20T00:41:42.879Z,16.56
2018-03-20T00:42:43.457Z,16.60
2018-03-20T00:43:44.036Z,16.50
2018-03-20T00:44:44.612Z,16.42
2018-03-20T00:45:45.240Z,16.50
2018-03-20T00:46:45.815Z,16.43
2018-03-20T00:47:46.392Z,16.51
2018-03-20T00:48:47.018Z,16.49
2018-03-20T00:49:47.600Z,16.53
2018-03-20T00:50:48.176Z,16.50
2018-03-20T00:51:48.751Z,16.46
2018-03-20T00:52:49.326Z,16.47
2018-03-20T00:53:49.954Z,16.47
2018-03-20T00:54:50.532Z,16.41
2018-03-20T00:55:51.110Z,16.46
2018-03-20T00:56:51.687Z,16.46
2018-03-20T00:57:52.264Z,16.42
2018-03-20T00:58:52.840Z,16.60
2018-03-20T00:59:53.416Z,16.50
2018-03-20T01:00:53.994Z,16.39
2018-03-20T01:01:54.568Z,16.43
2018-03-20T01:02:55.196Z,16.36
2018-03-20T01:03:55.777Z,16.38
2018-03-20T01:04:56.498Z,16.36
2018-03-20T01:05:57.073Z,16.32
2018-03-20T01:06:57.648Z,16.38
2018-03-20T01:07:58.223Z,16.24
2018-03-20T01:08:58.848Z,16.21
2018-03-20T01:09:59.423Z,16.08
2018-03-20T01:11:00.009Z,16.02
2018-03-20T01:12:00.579Z,16.12
2018-03-20T01:13:01.155Z,16.08
2018-03-20T01:14:01.732Z,16.13
2018-03-20T01:15:02.307Z,16.21
2018-03-20T01:16:02.932Z,16.17
2018-03-20T01:17:03.511Z,16.15
2018-03-20T01:18:04.089Z,16.17
2018-03-20T01:19:04.721Z,16.21
2018-03-20T01:20:05.292Z,16.29
2018-03-20T01:21:05.866Z,16.24
2018-03-20T01:22:06.441Z,16.33
2018-03-20T01:23:07.067Z,16.29
2018-03-20T01:24:07.792Z,16.36
2018-03-20T01:25:08.367Z,16.36
2018-03-20T01:26:08.944Z,16.31
2018-03-20T01:27:09.520Z,16.24
2018-03-20T01:28:10.097Z,16.17
2018-03-20T01:29:10.672Z,16.16
2018-03-20T01:30:11.247Z,16.16
2018-03-20T01:31:11.973Z,16.16
2018-03-20T01:32:12.550Z,16.01
2018-03-20T01:33:13.126Z,16.04
2018-03-20T01:34:13.702Z,16.04
2018-03-20T01:35:14.278Z,16.01
2018-03-20T01:36:14.856Z,16.04
2018-03-20T01:37:15.434Z,16.01
2018-03-20T01:38:16.012Z,16.10
2018-03-20T01:39:16.588Z,15.97
2018-03-20T01:40:17.316Z,16.01
2018-03-20T01:41:17.891Z,16.08
2018-03-20T01:42:18.466Z,16.12
2018-03-20T01:43:19.094Z,16.04
2018-03-20T01:44:19.672Z,16.05
2018-03-20T01:45:20.249Z,16.04
2018-03-20T01:46:20.824Z,16.05
2018-03-20T01:47:21.452Z,16.02
2018-03-20T01:48:22.029Z,16.05
2018-03-20T01:49:22.606Z,16.12
2018-03-20T01:50:23.183Z,16.02
2018-03-20T01:51:23.756Z,16.05
2018-03-20T01:52:24.331Z,16.05
2018-03-20T01:53:24.912Z,16.09
2018-03-20T01:54:25.541Z,16.09
2018-03-20T01:55:26.058Z,16.00
2018-03-20T01:56:26.632Z,15.97
2018-03-20T01:57:27.213Z,16.00
2018-03-20T01:58:27.789Z,15.95
2018-03-20T01:59:28.409Z,15.91
2018-03-20T02:00:28.986Z,16.05
2018-03-20T02:01:29.564Z,16.08
2018-03-20T02:02:30.142Z,16.04
2018-03-20T02:03:30.768Z,16.08
2018-03-20T02:04:31.342Z,16.05
2018-03-20T02:05:31.971Z,16.15
2018-03-20T02:06:32.546Z,16.09
2018-03-20T02:07:33.122Z,16.20
2018-03-20T02:08:33.700Z,16.09
2018-03-20T02:09:34.275Z,16.09
2018-03-20T02:10:34.854Z,16.09
2018-03-20T02:11:35.480Z,16.21
2018-03-20T02:12:36.108Z,16.15
2018-03-20T02:13:36.684Z,16.04
2018-03-20T02:14:37.262Z,16.02
2018-03-20T02:15:37.890Z,16.04
2018-03-20T02:16:38.463Z,16.05
2018-03-20T02:17:39.039Z,16.05
2018-03-20T02:18:39.613Z,16.08
2018-03-20T02:19:40.189Z,16.01
2018-03-20T02:20:40.814Z,16.08
2018-03-20T02:21:41.392Z,16.13
2018-03-20T02:22:41.968Z,16.08
2018-03-20T02:23:42.545Z,16.08
2018-03-20T02:24:43.122Z,16.08
2018-03-20T02:25:43.697Z,15.98
2018-03-20T02:26:44.272Z,15.98
2018-03-20T02:27:44.852Z,16.01
2018-03-20T02:28:45.424Z,16.05
2018-03-20T02:29:46.048Z,15.98
2018-03-20T02:30:46.624Z,16.02
2018-03-20T02:31:47.200Z,15.95
2018-03-20T02:32:47.832Z,15.86
2018-03-20T02:33:48.398Z,15.84
2018-03-20T02:34:48.972Z,15.92
2018-03-20T02:35:49.549Z,15.91
2018-03-20T02:36:50.174Z,15.92
2018-03-20T02:37:50.791Z,15.98
2018-03-20T02:38:51.371Z,15.98
2018-03-20T02:39:51.943Z,16.02
2018-03-20T02:40:52.521Z,16.09
2018-03-20T02:41:53.100Z,16.05
2018-03-20T02:42:53.674Z,16.09
2018-03-20T02:43:54.256Z,16.08
2018-03-20T02:44:54.827Z,16.04
2018-03-20T02:45:55.403Z,16.08
2018-03-20T02:46:55.979Z,16.08
2018-03-20T02:47:56.608Z,16.04
2018-03-20T02:48:57.234Z,16.08
2018-03-20T02:49:57.817Z,16.04
2018-03-20T02:50:58.388Z,16.12
2018-03-20T02:51:58.965Z,16.09
2018-03-20T02:52:59.545Z,16.09
2018-03-20T02:54:00.120Z,16.05
2018-03-20T02:55:00.696Z,16.08
2018-03-20T02:56:01.271Z,16.04
2018-03-20T02:57:01.848Z,16.05
2018-03-20T02:58:02.475Z,16.05
2018-03-20T02:59:03.052Z,16.02
2018-03-20T03:00:03.627Z,16.02
2018-03-20T03:01:04.203Z,16.04
2018-03-20T03:02:04.779Z,16.05
2018-03-20T03:03:05.355Z,16.05
2018-03-20T03:04:05.932Z,16.05
2018-03-20T03:05:06.505Z,16.12
2018-03-20T03:06:07.232Z,16.04
2018-03-20T03:07:07.808Z,16.05
2018-03-20T03:08:08.425Z,16.04
2018-03-20T03:09:08.961Z,16.04
2018-03-20T03:10:09.587Z,16.02
2018-03-20T03:11:10.166Z,15.94
2018-03-20T03:12:10.738Z,15.90
2018-03-20T03:13:11.320Z,15.80
2018-03-20T03:14:11.897Z,15.88
2018-03-20T03:15:12.625Z,15.83
2018-03-20T03:16:13.201Z,15.83
2018-03-20T03:17:13.777Z,15.88
2018-03-20T03:18:14.353Z,15.80
2018-03-20T03:19:14.927Z,15.72
2018-03-20T03:20:15.505Z,15.68
2018-03-20T03:21:16.080Z,15.73
2018-03-20T03:22:16.706Z,15.76
2018-03-20T03:23:17.284Z,15.75
2018-03-20T03:24:17.860Z,15.67
2018-03-20T03:25:18.437Z,15.76
2018-03-20T03:26:19.213Z,15.77
2018-03-20T03:27:19.790Z,15.68
2018-03-20T03:28:20.366Z,15.76
2018-03-20T03:29:20.942Z,15.77
2018-03-20T03:30:21.568Z,15.76
2018-03-20T03:31:22.199Z,15.70
2018-03-20T03:32:22.813Z,15.67
2018-03-20T03:33:23.391Z,15.64
2018-03-20T03:34:23.967Z,15.75
2018-03-20T03:35:24.538Z,15.72
2018-03-20T03:36:25.113Z,15.62
2018-03-20T03:37:25.697Z,15.54
2018-03-20T03:38:26.266Z,15.44
2018-03-20T03:39:26.840Z,15.42
2018-03-20T03:40:27.417Z,15.37
2018-03-20T03:41:27.993Z,15.40
2018-03-20T03:42:28.570Z,15.31
2018-03-20T03:43:29.148Z,15.29
2018-03-20T03:44:29.723Z,15.31
2018-03-20T03:45:30.303Z,15.42
2018-03-20T03:46:30.927Z,15.44
2018-03-20T03:47:31.554Z,15.43
2018-03-20T03:48:32.282Z,15.47
2018-03-20T03:49:32.860Z,15.57
2018-03-20T03:50:33.433Z,15.49
2018-03-20T03:51:34.009Z,15.54
2018-03-20T03:52:34.584Z,15.51
2018-03-20T03:53:35.159Z,15.58
2018-03-20T03:54:35.789Z,15.51
2018-03-20T03:55:36.361Z,15.47
2018-03-20T03:56:36.937Z,15.54
2018-03-20T03:57:37.516Z,15.47
2018-03-20T03:58:38.091Z,15.51
2018-03-20T03:59:38.665Z,15.44
2018-03-20T04:00:39.241Z,15.47
2018-03-20T04:01:39.868Z,15.58
2018-03-20T04:02:40.444Z,15.47
2018-03-20T04:03:41.021Z,15.51
2018-03-20T04:04:41.688Z,15.52
2018-03-20T04:05:42.264Z,15.43
2018-03-20T04:06:42.891Z,15.54
2018-03-20T04:07:43.465Z,15.47
2018-03-20T04:08:44.042Z,15.44
2018-03-20T04:09:44.616Z,15.44
2018-03-20T04:10:45.192Z,15.47
2018-03-20T04:11:45.769Z,15.47
2018-03-20T04:12:46.386Z,15.54
2018-03-20T04:13:46.962Z,15.46
2018-03-20T04:14:47.539Z,15.37
2018-03-20T04:15:48.117Z,15.58
2018-03-20T04:16:48.692Z,15.55
2018-03-20T04:17:49.270Z,15.59
2018-03-20T04:18:49.902Z,15.61
2018-03-20T04:19:50.473Z,15.52
2018-03-20T04:20:51.052Z,15.52
2018-03-20T04:21:51.677Z,15.44
2018-03-20T04:22:52.304Z,15.44
2018-03-20T04:23:52.883Z,15.46
2018-03-20T04:24:53.466Z,15.46
2018-03-20T04:25:54.044Z,15.46
2018-03-20T04:26:54.622Z,15.43
2018-03-20T04:27:55.249Z,15.47
2018-03-20T04:28:55.824Z,15.47
2018-03-20T04:29:56.400Z,15.46
2018-03-20T04:30:56.976Z,15.46
2018-03-20T04:31:57.552Z,15.54
2018-03-20T04:32:58.131Z,15.44
2018-03-20T04:33:58.711Z,15.42
2018-03-20T04:34:59.280Z,15.47
2018-03-20T04:35:59.855Z,15.49
2018-03-20T04:37:00.431Z,15.44
2018-03-20T04:38:01.059Z,15.36
2018-03-20T04:39:01.637Z,15.35
2018-03-20T04:40:02.263Z,15.33
2018-03-20T04:41:02.889Z,15.27
2018-03-20T04:42:03.465Z,15.14
2018-03-20T04:43:04.041Z,15.15
2018-03-20T04:44:04.620Z,15.17
2018-03-20T04:45:05.251Z,15.15
2018-03-20T04:46:05.865Z,15.10
2018-03-20T04:47:06.442Z,15.11
2018-03-20T04:48:07.016Z,15.14
2018-03-20T04:49:07.592Z,15.10
2018-03-20T04:50:08.169Z,15.31
2018-03-20T04:51:08.800Z,15.36
2018-03-20T04:52:09.419Z,15.33
2018-03-20T04:53:09.998Z,15.46
2018-03-20T04:54:10.572Z,15.49
2018-03-20T04:55:11.148Z,15.31
2018-03-20T04:56:11.882Z,15.33
2018-03-20T04:57:12.490Z,15.33
2018-03-20T04:58:13.118Z,15.28
2018-03-20T04:59:13.774Z,15.31
2018-03-20T05:00:14.329Z,15.35
2018-03-20T05:01:14.896Z,15.31
2018-03-20T05:02:15.477Z,15.37
2018-03-20T05:03:16.048Z,15.35
2018-03-20T05:04:16.625Z,15.35
2018-03-20T05:05:17.204Z,15.36
2018-03-20T05:06:17.778Z,15.31
2018-03-20T05:07:18.358Z,15.43
2018-03-20T05:08:18.935Z,15.39
2018-03-20T05:09:19.509Z,15.33
2018-03-20T05:10:20.083Z,15.33
2018-03-20T05:11:20.658Z,15.31
2018-03-20T05:12:21.382Z,15.22
2018-03-20T05:13:21.957Z,15.21
2018-03-20T05:14:22.533Z,15.18
2018-03-20T05:15:23.111Z,15.09
2018-03-20T05:16:23.686Z,15.15
2018-03-20T05:17:24.261Z,15.10
2018-03-20T05:18:24.887Z,15.11
2018-03-20T05:19:25.511Z,15.10
2018-03-20T05:20:26.085Z,15.07
2018-03-20T05:21:26.660Z,15.14
2018-03-20T05:22:27.238Z,15.11
2018-03-20T05:23:27.855Z,15.14
2018-03-20T05:24:28.433Z,15.15
2018-03-20T05:25:29.009Z,15.14
2018-03-20T05:26:29.586Z,15.03
2018-03-20T05:27:30.163Z,15.06
2018-03-20T05:28:30.740Z,15.02
2018-03-20T05:29:31.316Z,15.09
2018-03-20T05:30:31.944Z,15.10
2018-03-20T05:31:32.518Z,15.11
2018-03-20T05:32:33.092Z,15.11
2018-03-20T05:33:33.718Z,15.10
2018-03-20T05:34:34.295Z,15.15
2018-03-20T05:35:34.871Z,15.14
2018-03-20T05:36:35.497Z,15.24
2018-03-20T05:37:36.074Z,15.15
2018-03-20T05:38:36.649Z,15.10
2018-03-20T05:39:37.228Z,15.11
2018-03-20T05:40:37.802Z,15.14
2018-03-20T05:41:38.430Z,15.09
2018-03-20T05:42:39.005Z,15.17
2018-03-20T05:43:39.582Z,15.17
2018-03-20T05:44:40.161Z,15.17
2018-03-20T05:45:40.734Z,15.11
2018-03-20T05:46:41.298Z,15.14
2018-03-20T05:47:41.917Z,15.10
2018-03-20T05:48:42.484Z,15.11
2018-03-20T05:49:43.053Z,15.07
2018-03-20T05:50:43.672Z,15.14
2018-03-20T05:51:44.242Z,15.15
2018-03-20T05:52:44.812Z,15.14
2018-03-20T05:53:45.434Z,15.10
2018-03-20T05:54:45.999Z,14.97
2018-03-20T05:55:46.569Z,15.11
2018-03-20T05:56:47.188Z,15.10
2018-03-20T05:57:47.758Z,15.09
2018-03-20T05:58:48.328Z,15.09
2018-03-20T05:59:48.897Z,15.11
2018-03-20T06:00:49.467Z,15.10
2018-03-20T06:01:50.037Z,15.09
2018-03-20T06:02:50.647Z,14.99
2018-03-20T06:03:51.217Z,15.03
2018-03-20T06:04:51.839Z,14.97
2018-03-20T06:05:52.409Z,15.04
2018-03-20T06:06:52.980Z,15.11
2018-03-20T06:07:53.551Z,15.15
2018-03-20T06:08:54.121Z,15.11
2018-03-20T06:09:54.742Z,15.14
2018-03-20T06:10:55.313Z,15.15
2018-03-20T06:11:56.038Z,15.11
2018-03-20T06:12:56.605Z,15.04
2018-03-20T06:13:57.176Z,15.15
2018-03-20T06:14:57.744Z,15.14
2018-03-20T06:15:58.316Z,15.15
2018-03-20T06:16:58.886Z,15.27
2018-03-20T06:17:59.457Z,15.14
2018-03-20T06:19:00.030Z,15.21
2018-03-20T06:20:00.600Z,15.11
2018-03-20T06:21:01.170Z,14.96
2018-03-20T06:22:01.836Z,14.94
2018-03-20T06:23:02.404Z,14.94
2018-03-20T06:24:02.977Z,14.91
2018-03-20T06:25:03.549Z,14.84
2018-03-20T06:26:04.119Z,14.88
2018-03-20T06:27:04.691Z,14.84
2018-03-20T06:28:05.266Z,14.91
2018-03-20T06:29:05.886Z,14.85
2018-03-20T06:30:06.457Z,14.86
2018-03-20T06:31:07.077Z,14.86
2018-03-20T06:32:07.697Z,14.94
2018-03-20T06:33:08.268Z,14.86
2018-03-20T06:34:08.839Z,14.96
2018-03-20T06:35:09.461Z,14.85
2018-03-20T06:36:10.031Z,14.84
2018-03-20T06:37:10.603Z,14.79
2018-03-20T06:38:11.181Z,14.85
2018-03-20T06:39:11.743Z,14.82
2018-03-20T06:40:12.314Z,14.85
2018-03-20T06:41:12.887Z,14.91
2018-03-20T06:42:13.458Z,14.94
2018-03-20T06:43:14.028Z,14.91
2018-03-20T06:44:14.600Z,14.91
2018-03-20T06:45:15.172Z,15.03
2018-03-20T06:46:15.741Z,15.09
2018-03-20T06:47:16.464Z,14.96
2018-03-20T06:48:17.037Z,15.03
2018-03-20T06:49:17.607Z,15.03
2018-03-20T06:50:18.183Z,15.02
2018-03-20T06:51:18.843Z,15.02
2018-03-20T06:52:19.412Z,15.00
2018-03-20T06:53:19.986Z,15.03
2018-03-20T06:54:20.558Z,15.14
2018-03-20T06:55:21.277Z,15.10
2018-03-20T06:56:21.849Z,15.14
2018-03-20T06:57:22.419Z,15.06
2018-03-20T06:58:22.991Z,15.11
2018-03-20T06:59:23.612Z,15.18
2018-03-20T07:00:24.176Z,15.18
2018-03-20T07:01:24.752Z,15.06
2018-03-20T07:02:25.318Z,15.21
2018-03-20T07:03:25.940Z,15.10
2018-03-20T07:04:26.512Z,15.10
2018-03-20T07:05:27.082Z,15.17
2018-03-20T07:06:27.652Z,15.17
2018-03-20T07:07:28.222Z,15.06
2018-03-20T07:08:28.793Z,15.15
2018-03-20T07:09:29.363Z,15.10
2018-03-20T07:10:29.983Z,15.02
2018-03-20T07:11:30.555Z,14.92
2018-03-20T07:12:31.218Z,14.96
2018-03-20T07:13:31.790Z,14.86
2018-03-20T07:14:32.402Z,14.92
2018-03-20T07:15:32.973Z,14.94
2018-03-20T07:16:33.544Z,15.10
2018-03-20T07:17:34.114Z,15.00
2018-03-20T07:18:34.687Z,15.09
2018-03-20T07:19:35.258Z,14.97
2018-03-20T07:20:35.828Z,14.89
2018-03-20T07:21:36.400Z,14.91
2018-03-20T07:22:37.058Z,14.89
2018-03-20T07:23:37.593Z,14.85
2018-03-20T07:24:38.165Z,14.79
2018-03-20T07:25:38.785Z,14.84
2018-03-20T07:26:39.359Z,14.89
2018-03-20T07:27:39.970Z,14.84
2018-03-20T07:28:40.544Z,14.85
2018-03-20T07:29:41.116Z,14.89
2018-03-20T07:30:41.839Z,14.79
2018-03-20T07:31:42.451Z,14.85
2018-03-20T07:32:43.022Z,14.82
2018-03-20T07:33:43.592Z,14.81
2018-03-20T07:34:44.217Z,14.77
2018-03-20T07:35:44.827Z,14.68
2018-03-20T07:36:45.397Z,14.70
2018-03-20T07:37:46.018Z,14.72
2018-03-20T07:38:46.587Z,14.72
2018-03-20T07:39:47.160Z,14.65
2018-03-20T07:40:47.733Z,14.62
2018-03-20T07:41:48.353Z,14.58
2018-03-20T07:42:48.923Z,14.60
2018-03-20T07:43:49.493Z,14.60
2018-03-20T07:44:50.064Z,14.53
2018-03-20T07:45:50.633Z,14.69
2018-03-20T07:46:51.253Z,14.73
2018-03-20T07:47:51.874Z,14.77
2018-03-20T07:48:52.445Z,14.70
2018-03-20T07:49:53.017Z,14.68
2018-03-20T07:50:53.638Z,14.78
2018-03-20T07:51:54.210Z,14.65
2018-03-20T07:52:54.781Z,14.72
2018-03-20T07:53:55.352Z,14.68
2018-03-20T07:54:55.924Z,14.68
2018-03-20T07:55:56.495Z,14.66
2018-03-20T07:56:57.118Z,14.63
2018-03-20T07:57:57.690Z,14.53
2018-03-20T07:58:58.308Z,14.65
2018-03-20T07:59:58.878Z,14.77
2018-03-20T08:00:59.448Z,14.78
2018-03-20T08:02:00.020Z,14.81
2018-03-20T08:03:00.590Z,14.72
2018-03-20T08:04:01.159Z,14.85
2018-03-20T08:05:01.781Z,14.70
2018-03-20T08:06:02.352Z,14.70
2018-03-20T08:07:02.922Z,14.65
2018-03-20T08:08:03.493Z,14.68
2018-03-20T08:09:04.062Z,14.68
2018-03-20T08:10:04.633Z,14.77
2018-03-20T08:11:05.204Z,14.79
2018-03-20T08:12:05.774Z,14.84
2018-03-20T08:13:06.434Z,14.79
2018-03-20T08:14:07.018Z,14.78
2018-03-20T08:15:07.590Z,14.82
2018-03-20T08:16:08.160Z,14.78
2018-03-20T08:17:08.730Z,14.97
2018-03-20T08:18:09.302Z,14.97
2018-03-20T08:19:09.902Z,15.00
2018-03-20T08:20:10.445Z,15.04
2018-03-20T08:21:11.015Z,15.15
2018-03-20T08:22:11.587Z,14.97
2018-03-20T08:23:12.162Z,15.02
2018-03-20T08:24:12.730Z,15.02
2018-03-20T08:25:13.300Z,14.97
2018-03-20T08:26:13.923Z,15.06
2018-03-20T08:27:14.496Z,14.96
2018-03-20T08:28:15.109Z,15.14
2018-03-20T08:29:15.702Z,15.14
2018-03-20T08:30:16.252Z,15.10
2018-03-20T08:31:16.874Z,15.10
2018-03-20T08:32:17.593Z,15.10
2018-03-20T08:33:18.165Z,15.11
2018-03-20T08:34:18.789Z,15.09
2018-03-20T08:35:19.360Z,15.17
2018-03-20T08:36:19.933Z,15.11
2018-03-20T08:37:20.505Z,15.14
2018-03-20T08:38:21.077Z,15.11
2018-03-20T08:39:21.646Z,15.15
2018-03-20T08:40:22.218Z,15.09
2018-03-20T08:41:22.791Z,15.06
2018-03-20T08:42:23.359Z,15.10
2018-03-20T08:43:23.932Z,15.17
2018-03-20T08:44:24.508Z,15.14
2018-03-20T08:45:25.076Z,15.17
2018-03-20T08:46:25.694Z,15.11
2018-03-20T08:47:26.266Z,15.27
2018-03-20T08:48:26.838Z,15.21
2018-03-20T08:49:27.412Z,15.04
2018-03-20T08:50:27.983Z,15.17
2018-03-20T08:51:28.555Z,15.15
2018-03-20T08:52:29.180Z,15.09
2018-03-20T08:53:29.751Z,15.09
2018-03-20T08:54:30.376Z,15.07
2018-03-20T08:55:30.946Z,15.07
2018-03-20T08:56:31.519Z,15.10
2018-03-20T08:57:32.090Z,15.14
2018-03-20T08:58:32.661Z,15.11
2018-03-20T08:59:33.235Z,15.14
2018-03-20T09:00:33.845Z,15.19
2018-03-20T09:01:34.380Z,15.15
2018-03-20T09:02:34.952Z,15.07
2018-03-20T09:03:35.522Z,15.00
2018-03-20T09:04:36.145Z,15.06
2018-03-20T09:05:36.717Z,14.97
2018-03-20T09:06:37.293Z,14.82
2018-03-20T09:07:37.862Z,14.81
2018-03-20T09:08:38.436Z,14.89
2018-03-20T09:09:39.008Z,14.84
2018-03-20T09:10:39.628Z,14.89
2018-03-20T09:11:40.212Z,14.82
2018-03-20T09:12:40.772Z,14.86
2018-03-20T09:13:41.396Z,14.85
2018-03-20T09:14:41.969Z,14.91
2018-03-20T09:15:42.548Z,14.84
2018-03-20T09:16:43.114Z,14.81
2018-03-20T09:17:43.684Z,14.81
2018-03-20T09:18:44.305Z,14.79
2018-03-20T09:19:44.880Z,14.68
2018-03-20T09:20:45.450Z,14.58
2018-03-20T09:21:46.022Z,14.63
2018-03-20T09:22:46.592Z,14.54
2018-03-20T09:23:47.164Z,14.62
2018-03-20T09:24:47.783Z,14.60
2018-03-20T09:25:48.358Z,14.62
2018-03-20T09:26:49.079Z,14.55
2018-03-20T09:27:49.651Z,14.55
2018-03-20T09:28:50.223Z,14.63
2018-03-20T09:29:50.832Z,14.66
2018-03-20T09:30:51.369Z,14.77
2018-03-20T09:31:51.941Z,14.73
2018-03-20T09:32:52.564Z,14.81
2018-03-20T09:33:53.190Z,14.72
2018-03-20T09:34:53.803Z,14.70
2018-03-20T09:35:54.378Z,14.78
2018-03-20T09:36:54.951Z,14.72
2018-03-20T09:37:55.522Z,14.81
2018-03-20T09:38:56.095Z,14.88
2018-03-20T09:39:56.673Z,14.88
2018-03-20T09:40:57.246Z,14.94
2018-03-20T09:41:57.819Z,14.89
2018-03-20T09:42:58.542Z,14.85
2018-03-20T09:43:59.164Z,14.88
2018-03-20T09:44:59.734Z,14.91
2018-03-20T09:46:00.309Z,14.96
2018-03-20T09:47:00.922Z,14.96
2018-03-20T09:48:01.494Z,15.04
2018-03-20T09:49:02.112Z,14.96
2018-03-20T09:50:02.690Z,14.94
2018-03-20T09:51:03.263Z,14.96
2018-03-20T09:52:03.836Z,15.03
2018-03-20T09:53:04.456Z,14.97
2018-03-20T09:54:05.077Z,14.91
2018-03-20T09:55:05.698Z,15.03
2018-03-20T09:56:06.269Z,14.94
2018-03-20T09:57:06.840Z,14.91
2018-03-20T09:58:07.413Z,14.96
2018-03-20T09:59:07.986Z,14.96
2018-03-20T10:00:08.612Z,14.96
2018-03-20T10:01:09.224Z,15.04
2018-03-20T10:02:09.794Z,15.03
2018-03-20T10:03:10.419Z,14.99
2018-03-20T10:04:10.986Z,15.06
2018-03-20T10:05:11.557Z,15.11
2018-03-20T10:06:12.127Z,15.04
2018-03-20T10:07:12.699Z,15.10
2018-03-20T10:08:13.271Z,15.19
2018-03-20T10:09:13.846Z,15.15
2018-03-20T10:10:14.459Z,15.11
2018-03-20T10:11:15.083Z,15.09
2018-03-20T10:12:15.698Z,15.15
2018-03-20T10:13:16.271Z,15.14
2018-03-20T10:14:16.842Z,15.11
2018-03-20T10:15:17.413Z,15.09
2018-03-20T10:16:17.986Z,15.17
2018-03-20T10:17:18.560Z,15.15
2018-03-20T10:18:19.132Z,15.11
2018-03-20T10:19:19.704Z,15.04
2018-03-20T10:20:20.376Z,15.10
2018-03-20T10:21:20.899Z,15.03
2018-03-20T10:22:21.678Z,15.21
2018-03-20T10:23:22.247Z,15.22
2018-03-20T10:24:22.816Z,15.17
2018-03-20T10:25:23.392Z,15.18
2018-03-20T10:26:24.009Z,15.10
2018-03-20T10:27:24.576Z,15.25
2018-03-20T10:28:25.148Z,15.17
2018-03-20T10:29:25.769Z,15.14
2018-03-20T10:30:26.342Z,15.09
2018-03-20T10:31:26.914Z,15.00
2018-03-20T10:32:27.488Z,15.11
2018-03-20T10:33:28.057Z,14.96
2018-03-20T10:34:28.635Z,15.02
2018-03-20T10:35:29.202Z,15.09
2018-03-20T10:36:29.824Z,15.14
2018-03-20T10:37:30.397Z,15.17
2018-03-20T10:38:30.970Z,15.15
2018-03-20T10:39:31.591Z,15.15
2018-03-20T10:40:32.161Z,15.19
2018-03-20T10:41:32.741Z,15.17
2018-03-20T10:42:33.306Z,15.19
2018-03-20T10:43:33.878Z,15.14
2018-03-20T10:44:34.452Z,15.21
2018-03-20T10:45:35.074Z,15.15
2018-03-20T10:46:35.645Z,15.19
2018-03-20T10:47:36.218Z,15.15
2018-03-20T10:48:36.791Z,15.19
2018-03-20T10:49:37.364Z,15.25
2018-03-20T10:50:37.938Z,15.31
2018-03-20T10:51:38.508Z,15.29
2018-03-20T10:52:39.131Z,15.35
2018-03-20T10:53:39.705Z,15.33
2018-03-20T10:54:40.278Z,15.35
2018-03-20T10:55:40.901Z,15.37
2018-03-20T10:56:41.525Z,15.35
2018-03-20T10:57:42.097Z,15.37
2018-03-20T10:58:42.677Z,15.35
2018-03-20T10:59:43.294Z,15.35
2018-03-20T11:00:43.869Z,15.33
2018-03-20T11:01:44.440Z,15.35
2018-03-20T11:02:45.012Z,15.46
2018-03-20T11:03:45.585Z,15.54
2018-03-20T11:04:46.203Z,15.51
2018-03-20T11:05:46.775Z,15.47
2018-03-20T11:06:47.347Z,15.46
2018-03-20T11:07:47.920Z,15.49
2018-03-20T11:08:48.493Z,15.55
2018-03-20T11:09:49.065Z,15.55
2018-03-20T11:10:49.638Z,15.52
2018-03-20T11:11:50.260Z,15.64
2018-03-20T11:12:50.833Z,15.64
2018-03-20T11:13:51.407Z,15.73
2018-03-20T11:14:51.979Z,15.73
2018-03-20T11:15:52.552Z,15.73
2018-03-20T11:16:53.123Z,15.79
2018-03-20T11:17:53.704Z,15.83
2018-03-20T11:18:54.272Z,15.86
2018-03-20T11:19:54.993Z,15.83
2018-03-20T11:20:55.716Z,15.86
2018-03-20T11:21:56.288Z,15.84
2018-03-20T11:22:56.861Z,15.91
2018-03-20T11:23:57.435Z,15.95
2018-03-20T11:24:58.007Z,15.95
2018-03-20T11:25:58.581Z,15.97
2018-03-20T11:26:59.154Z,15.95
2018-03-20T11:27:59.730Z,16.01
2018-03-20T11:29:00.303Z,16.08
2018-03-20T11:30:00.873Z,16.04
2018-03-20T11:31:01.496Z,16.08
2018-03-20T11:32:02.088Z,16.08
2018-03-20T11:33:02.642Z,16.15
2018-03-20T11:34:03.215Z,16.15
2018-03-20T11:35:03.786Z,16.13
2018-03-20T11:36:04.359Z,16.10
2018-03-20T11:37:04.940Z,16.24
2018-03-20T11:38:05.549Z,16.20
2018-03-20T11:39:06.122Z,16.24
2018-03-20T11:40:06.744Z,16.32
2018-03-20T11:41:07.365Z,16.33
2018-03-20T11:42:07.938Z,16.35
2018-03-20T11:43:08.561Z,16.32
2018-03-20T11:44:09.138Z,16.32
2018-03-20T11:45:09.750Z,16.39
2018-03-20T11:46:10.320Z,16.35
2018-03-20T11:47:10.894Z,16.31
2018-03-20T11:48:11.465Z,16.33
2018-03-20T11:49:12.036Z,16.36
2018-03-20T11:50:12.611Z,16.41
2018-03-20T11:51:13.184Z,16.43
2018-03-20T11:52:13.756Z,16.42
2018-03-20T11:53:14.330Z,16.41
2018-03-20T11:54:14.902Z,16.41
2018-03-20T11:55:15.478Z,16.46
2018-03-20T11:56:16.102Z,16.42
2018-03-20T11:57:16.729Z,16.42
2018-03-20T11:58:17.348Z,16.54
2018-03-20T11:59:17.923Z,16.56
2018-03-20T12:00:18.495Z,16.49
2018-03-20T12:01:19.067Z,16.57
2018-03-20T12:02:19.645Z,16.58
2018-03-20T12:03:20.214Z,16.60
2018-03-20T12:04:20.788Z,16.57
2018-03-20T12:05:21.362Z,16.56
2018-03-20T12:06:21.933Z,16.64
2018-03-20T12:07:22.507Z,16.66
2018-03-20T12:08:23.078Z,16.68
2018-03-20T12:09:23.653Z,16.68
2018-03-20T12:10:24.226Z,16.60
2018-03-20T12:11:24.848Z,16.66
2018-03-20T12:12:25.421Z,16.68
2018-03-20T12:13:25.994Z,16.65
2018-03-20T12:14:26.568Z,16.60
2018-03-20T12:15:27.192Z,16.61
2018-03-20T12:16:27.767Z,16.61
2018-03-20T12:17:28.437Z,16.64
2018-03-20T12:18:29.007Z,16.65
2018-03-20T12:19:29.630Z,16.61
2018-03-20T12:20:30.204Z,16.58
2018-03-20T12:21:30.775Z,16.65
2018-03-20T12:22:31.349Z,16.58
2018-03-20T12:23:31.925Z,16.58
2018-03-20T12:24:32.498Z,16.60
2018-03-20T12:25:33.071Z,16.66
2018-03-20T12:26:33.669Z,16.68
2018-03-20T12:27:34.212Z,16.64
2018-03-20T12:28:34.837Z,16.61
2018-03-20T12:29:35.415Z,16.66
2018-03-20T12:30:36.083Z,16.64
2018-03-20T12:31:36.656Z,16.66
2018-03-20T12:32:37.232Z,16.65
2018-03-20T12:33:37.805Z,16.66
2018-03-20T12:34:38.380Z,16.58
2018-03-20T12:35:39.004Z,16.56
2018-03-20T12:36:39.580Z,16.57
2018-03-20T12:37:40.151Z,16.56
2018-03-20T12:38:40.725Z,16.60
2018-03-20T12:39:41.301Z,16.43
2018-03-20T12:40:41.874Z,16.46
2018-03-20T12:41:42.447Z,16.42
2018-03-20T12:42:43.119Z,16.46
2018-03-20T12:43:43.691Z,16.35
2018-03-20T12:44:44.263Z,16.49
2018-03-20T12:45:44.833Z,16.32
2018-03-20T12:46:45.445Z,16.38
2018-03-20T12:47:45.979Z,16.29
2018-03-20T12:48:46.551Z,16.38
2018-03-20T12:49:47.127Z,16.32
2018-03-20T12:50:47.699Z,16.31
2018-03-20T12:51:48.273Z,16.31
2018-03-20T12:52:48.996Z,16.31
2018-03-20T12:53:49.620Z,16.36
2018-03-20T12:54:50.191Z,16.32
2018-03-20T12:55:50.765Z,16.15
2018-03-20T12:56:51.338Z,16.21
2018-03-20T12:57:51.910Z,16.16
2018-03-20T12:58:52.485Z,16.17
2018-03-20T12:59:53.058Z,16.21